Churdan, Iowa
Current Conditions -  °F | °C
As of 3:35 AM on Thursday 23 Oct 2014 (Local Time) from KCIN Reporting Station
Haze Haze  
Wind Chill: 55°   Ceiling: 2200
Heat Index: 55°   Visibility: 5mi
Dew Point: 54°   Wind: 8mph
Humidity: 94%   Direction: 190°S
Pressure: 30.02"   Gusts: 14mph
Location:  42.15°N, 94.47°W
Report Text: KCIN 230835Z AUTO 19007G12KT 5SM BR FEW003 SCT012 BKN022 13/12 A3002 RMK AO2
Loading
Personal Weather Stations






























Interactive Weather Map
Tropical Storm Tracking
New forecast layout! Learn more

10-Day Weather Forecast

Advertisements
Track Severe Weather on mobile